sensor_id;sensor_type;location;lat;lon;timestamp;temperature;humidity
1055;DHT22;516;51.482;7.120;2023-04-23T00:03:48;10.50;99.90
1055;DHT22;516;51.482;7.120;2023-04-23T00:13:36;10.40;99.90
1055;DHT22;516;51.482;7.120;2023-04-23T00:19:23;10.20;99.90
1055;DHT22;516;51.482;7.120;2023-04-23T00:25:11;10.20;99.90
1055;DHT22;516;51.482;7.120;2023-04-23T00:30:59;10.30;99.90
1055;DHT22;516;51.482;7.120;2023-04-23T00:36:47;10.10;99.90
1055;DHT22;516;51.482;7.120;2023-04-23T00:42:35;10.20;99.90
1055;DHT22;516;51.482;7.120;2023-04-23T00:48:23;10.20;99.90
1055;DHT22;516;51.482;7.120;2023-04-23T00:54:12;10.20;99.90
1055;DHT22;516;51.482;7.120;2023-04-23T01:00:01;10.00;99.90
1055;DHT22;516;51.482;7.120;2023-04-23T01:05:49;10.00;99.90
1055;DHT22;516;51.482;7.120;2023-04-23T01:11:31;10.10;99.90
1055;DHT22;516;51.482;7.120;2023-04-23T01:17:20;10.00;99.90
1055;DHT22;516;51.482;7.120;2023-04-23T01:23:08;10.00;99.90
1055;DHT22;516;51.482;7.120;2023-04-23T01:28:56;9.90;99.90
1055;DHT22;516;51.482;7.120;2023-04-23T01:34:45;10.00;99.90
1055;DHT22;516;51.482;7.120;2023-04-23T01:40:33;10.00;99.90
1055;DHT22;516;51.482;7.120;2023-04-23T01:46:21;9.90;99.90
1055;DHT22;516;51.482;7.120;2023-04-23T01:52:09;9.80;99.90
1055;DHT22;516;51.482;7.120;2023-04-23T01:57:57;9.70;99.90
1055;DHT22;516;51.482;7.120;2023-04-23T02:03:45;9.60;99.90
1055;DHT22;516;51.482;7.120;2023-04-23T02:13:36;9.40;99.90
1055;DHT22;516;51.482;7.120;2023-04-23T02:19:24;9.10;99.90
1055;DHT22;516;51.482;7.120;2023-04-23T02:25:13;9.20;99.90
1055;DHT22;516;51.482;7.120;2023-04-23T02:31:04;9.20;99.90
1055;DHT22;516;51.482;7.120;2023-04-23T02:36:51;9.00;99.90
1055;DHT22;516;51.482;7.120;2023-04-23T02:42:39;8.90;99.90
1055;DHT22;516;51.482;7.120;2023-04-23T02:48:27;8.90;99.90
1055;DHT22;516;51.482;7.120;2023-04-23T02:54:16;8.70;99.90
1055;DHT22;516;51.482;7.120;2023-04-23T03:00:05;8.40;99.90
1055;DHT22;516;51.482;7.120;2023-04-23T03:05:53;8.40;99.90
1055;DHT22;516;51.482;7.120;2023-04-23T03:11:32;8.30;99.90
1055;DHT22;516;51.482;7.120;2023-04-23T03:17:20;8.30;99.90
1055;DHT22;516;51.482;7.120;2023-04-23T03:23:07;8.60;99.90
1055;DHT22;516;51.482;7.120;2023-04-23T03:28:55;8.70;99.90
1055;DHT22;516;51.482;7.120;2023-04-23T03:34:43;8.70;99.90
1055;DHT22;516;51.482;7.120;2023-04-23T03:40:31;8.60;99.90
1055;DHT22;516;51.482;7.120;2023-04-23T03:46:18;8.40;99.90
1055;DHT22;516;51.482;7.120;2023-04-23T03:52:06;8.60;99.90
1055;DHT22;516;51.482;7.120;2023-04-23T03:57:54;8.70;99.90
1055;DHT22;516;51.482;7.120;2023-04-23T04:03:42;8.80;99.90
1055;DHT22;516;51.482;7.120;2023-04-23T04:19:26;9.00;99.90
1055;DHT22;516;51.482;7.120;2023-04-23T04:25:13;8.90;99.90
1055;DHT22;516;51.482;7.120;2023-04-23T04:31:04;8.80;99.90
1055;DHT22;516;51.482;7.120;2023-04-23T04:36:53;8.80;99.90
1055;DHT22;516;51.482;7.120;2023-04-23T04:42:41;8.80;99.90
1055;DHT22;516;51.482;7.120;2023-04-23T04:48:29;8.80;99.90
1055;DHT22;516;51.482;7.120;2023-04-23T04:54:16;8.80;99.90
1055;DHT22;516;51.482;7.120;2023-04-23T05:06:09;9.20;99.90
1055;DHT22;516;51.482;7.120;2023-04-23T05:09:05;9.40;99.90
1055;DHT22;516;51.482;7.120;2023-04-23T05:11:32;9.50;99.90
1055;DHT22;516;51.482;7.120;2023-04-23T05:17:21;9.80;99.90
1055;DHT22;516;51.482;7.120;2023-04-23T05:23:09;10.10;99.90
1055;DHT22;516;51.482;7.120;2023-04-23T05:28:57;11.10;99.90
1055;DHT22;516;51.482;7.120;2023-04-23T05:34:46;11.70;99.90
1055;DHT22;516;51.482;7.120;2023-04-23T05:40:33;12.10;99.90
1055;DHT22;516;51.482;7.120;2023-04-23T05:46:21;12.60;99.90
1055;DHT22;516;51.482;7.120;2023-04-23T05:52:09;12.90;99.90
1055;DHT22;516;51.482;7.120;2023-04-23T05:57:57;12.90;99.90
1055;DHT22;516;51.482;7.120;2023-04-23T06:03:47;12.10;99.90
1055;DHT22;516;51.482;7.120;2023-04-23T06:13:37;12.00;99.90
1055;DHT22;516;51.482;7.120;2023-04-23T06:19:27;12.20;99.90
1055;DHT22;516;51.482;7.120;2023-04-23T06:25:14;12.20;99.90
1055;DHT22;516;51.482;7.120;2023-04-23T06:31:02;12.40;99.90
1055;DHT22;516;51.482;7.120;2023-04-23T06:36:51;12.50;99.90
1055;DHT22;516;51.482;7.120;2023-04-23T06:42:39;12.50;99.90
1055;DHT22;516;51.482;7.120;2023-04-23T06:48:27;12.70;99.90
1055;DHT22;516;51.482;7.120;2023-04-23T06:54:15;12.90;99.90
1055;DHT22;516;51.482;7.120;2023-04-23T07:00:03;13.50;99.90
1055;DHT22;516;51.482;7.120;2023-04-23T07:05:54;13.50;99.90
1055;DHT22;516;51.482;7.120;2023-04-23T07:11:31;13.90;99.90
1055;DHT22;516;51.482;7.120;2023-04-23T07:17:21;14.20;99.90
1055;DHT22;516;51.482;7.120;2023-04-23T07:23:09;14.20;99.90
1055;DHT22;516;51.482;7.120;2023-04-23T07:28:57;14.60;99.90
1055;DHT22;516;51.482;7.120;2023-04-23T07:34:45;15.80;99.90
1055;DHT22;516;51.482;7.120;2023-04-23T07:40:33;16.20;99.90
1055;DHT22;516;51.482;7.120;2023-04-23T07:46:20;16.60;99.90
1055;DHT22;516;51.482;7.120;2023-04-23T07:52:08;16.40;99.90
1055;DHT22;516;51.482;7.120;2023-04-23T07:57:56;17.10;99.90
1055;DHT22;516;51.482;7.120;2023-04-23T08:03:43;17.10;99.90
1055;DHT22;516;51.482;7.120;2023-04-23T08:19:24;18.10;95.30
1055;DHT22;516;51.482;7.120;2023-04-23T08:25:18;18.00;93.50
1055;DHT22;516;51.482;7.120;2023-04-23T08:31:07;17.90;96.80
1055;DHT22;516;51.482;7.120;2023-04-23T08:36:54;18.10;94.70
1055;DHT22;516;51.482;7.120;2023-04-23T08:49:17;18.10;64.30
1055;DHT22;516;51.482;7.120;2023-04-23T08:55:07;19.10;64.30
1055;DHT22;516;51.482;7.120;2023-04-23T09:00:57;19.10;53.90
1055;DHT22;516;51.482;7.120;2023-04-23T09:06:45;18.30;53.60
1055;DHT22;516;51.482;7.120;2023-04-23T09:15:55;19.40;49.30
1055;DHT22;516;51.482;7.120;2023-04-23T09:21:46;19.20;38.50
1055;DHT22;516;51.482;7.120;2023-04-23T09:27:34;18.30;47.50
1055;DHT22;516;51.482;7.120;2023-04-23T09:33:27;18.40;47.00
1055;DHT22;516;51.482;7.120;2023-04-23T09:39:20;17.40;50.10
1055;DHT22;516;51.482;7.120;2023-04-23T09:45:13;17.20;54.30
1055;DHT22;516;51.482;7.120;2023-04-23T09:51:01;17.80;57.00
1055;DHT22;516;51.482;7.120;2023-04-23T09:56:50;19.10;46.20
1055;DHT22;516;51.482;7.120;2023-04-23T10:02:37;19.20;30.00
1055;DHT22;516;51.482;7.120;2023-04-23T10:08:27;19.50;35.50
1055;DHT22;516;51.482;7.120;2023-04-23T10:14:14;19.60;29.80
1055;DHT22;516;51.482;7.120;2023-04-23T10:20:03;19.00;27.60
1055;DHT22;516;51.482;7.120;2023-04-23T10:25:54;18.80;33.00
1055;DHT22;516;51.482;7.120;2023-04-23T10:31:42;18.80;27.80
1055;DHT22;516;51.482;7.120;2023-04-23T10:37:33;18.60;28.60
1055;DHT22;516;51.482;7.120;2023-04-23T10:43:21;18.90;23.70
1055;DHT22;516;51.482;7.120;2023-04-23T10:54:57;18.30;25.90
1055;DHT22;516;51.482;7.120;2023-04-23T11:00:48;18.60;27.50
1055;DHT22;516;51.482;7.120;2023-04-23T11:12:34;18.00;32.70
1055;DHT22;516;51.482;7.120;2023-04-23T11:18:22;17.50;39.40
1055;DHT22;516;51.482;7.120;2023-04-23T11:24:10;17.90;43.00
1055;DHT22;516;51.482;7.120;2023-04-23T11:29:58;17.50;58.40
1055;DHT22;516;51.482;7.120;2023-04-23T11:35:46;17.10;64.40
1055;DHT22;516;51.482;7.120;2023-04-23T11:41:34;16.10;91.90
1055;DHT22;516;51.482;7.120;2023-04-23T11:47:25;14.10;99.90
1055;DHT22;516;51.482;7.120;2023-04-23T11:53:12;14.70;99.90
1055;DHT22;516;51.482;7.120;2023-04-23T11:59:03;14.50;99.90
1055;DHT22;516;51.482;7.120;2023-04-23T12:04:52;15.10;99.90
1055;DHT22;516;51.482;7.120;2023-04-23T12:16:40;16.90;99.90
1055;DHT22;516;51.482;7.120;2023-04-23T12:22:28;18.10;99.90
1055;DHT22;516;51.482;7.120;2023-04-23T12:28:22;18.90;66.40
1055;DHT22;516;51.482;7.120;2023-04-23T12:34:11;19.30;80.40
1055;DHT22;516;51.482;7.120;2023-04-23T12:43:57;19.30;21.30
1055;DHT22;516;51.482;7.120;2023-04-23T12:49:45;19.50;9.80
1055;DHT22;516;51.482;7.120;2023-04-23T12:55:36;20.20;8.40
1055;DHT22;516;51.482;7.120;2023-04-23T13:01:26;20.80;4.20
1055;DHT22;516;51.482;7.120;2023-04-23T13:07:13;20.70;1.20
1055;DHT22;516;51.482;7.120;2023-04-23T13:13:03;20.90;1.00
1055;DHT22;516;51.482;7.120;2023-04-23T13:18:51;21.40;1.00
1055;DHT22;516;51.482;7.120;2023-04-23T13:24:40;20.30;1.00
1055;DHT22;516;51.482;7.120;2023-04-23T13:30:28;20.70;1.00
1055;DHT22;516;51.482;7.120;2023-04-23T13:36:15;19.70;1.00
1055;DHT22;516;51.482;7.120;2023-04-23T13:41:52;19.70;1.00
1055;DHT22;516;51.482;7.120;2023-04-23T13:47:40;19.90;1.00
1055;DHT22;516;51.482;7.120;2023-04-23T13:53:28;19.80;1.00
1055;DHT22;516;51.482;7.120;2023-04-23T13:59:16;19.80;1.00
1055;DHT22;516;51.482;7.120;2023-04-23T14:05:04;20.10;1.00
1055;DHT22;516;51.482;7.120;2023-04-23T14:10:53;19.90;1.00
1055;DHT22;516;51.482;7.120;2023-04-23T14:16:40;19.70;1.00
1055;DHT22;516;51.482;7.120;2023-04-23T14:22:28;19.30;1.00
1055;DHT22;516;51.482;7.120;2023-04-23T14:45:01;19.10;1.00
1055;DHT22;516;51.482;7.120;2023-04-23T14:50:48;19.00;1.00
1055;DHT22;516;51.482;7.120;2023-04-23T14:56:35;19.30;1.00
1055;DHT22;516;51.482;7.120;2023-04-23T15:02:24;19.10;1.00
1055;DHT22;516;51.482;7.120;2023-04-23T15:11:34;18.40;1.00
1055;DHT22;516;51.482;7.120;2023-04-23T15:17:24;18.40;1.00
1055;DHT22;516;51.482;7.120;2023-04-23T15:23:12;18.30;1.00
1055;DHT22;516;51.482;7.120;2023-04-23T15:28:59;18.30;1.00
1055;DHT22;516;51.482;7.120;2023-04-23T15:34:47;18.00;1.00
1055;DHT22;516;51.482;7.120;2023-04-23T15:43:56;17.40;4.00
1055;DHT22;516;51.482;7.120;2023-04-23T15:49:45;17.20;7.30
1055;DHT22;516;51.482;7.120;2023-04-23T15:55:33;17.10;7.40
1055;DHT22;516;51.482;7.120;2023-04-23T16:01:20;16.60;10.70
1055;DHT22;516;51.482;7.120;2023-04-23T16:07:08;15.50;35.90
1055;DHT22;516;51.482;7.120;2023-04-23T16:12:56;15.40;54.50
1055;DHT22;516;51.482;7.120;2023-04-23T16:18:44;15.40;54.70
1055;DHT22;516;51.482;7.120;2023-04-23T16:24:32;15.20;58.60
1055;DHT22;516;51.482;7.120;2023-04-23T16:30:01;15.00;80.40
1055;DHT22;516;51.482;7.120;2023-04-23T16:35:48;14.70;99.90
1055;DHT22;516;51.482;7.120;2023-04-23T16:41:36;13.90;99.90
1055;DHT22;516;51.482;7.120;2023-04-23T16:47:24;13.40;99.90
1055;DHT22;516;51.482;7.120;2023-04-23T16:53:11;13.20;99.90
1055;DHT22;516;51.482;7.120;2023-04-23T16:58:59;13.00;99.90
1055;DHT22;516;51.482;7.120;2023-04-23T17:04:47;12.80;99.90
1055;DHT22;516;51.482;7.120;2023-04-23T17:10:35;12.80;99.90
1055;DHT22;516;51.482;7.120;2023-04-23T17:16:23;12.70;99.90
1055;DHT22;516;51.482;7.120;2023-04-23T17:22:14;12.60;99.90
1055;DHT22;516;51.482;7.120;2023-04-23T17:28:02;12.50;99.90
1055;DHT22;516;51.482;7.120;2023-04-23T17:33:50;12.30;99.90
1055;DHT22;516;51.482;7.120;2023-04-23T17:49:48;11.90;99.90
1055;DHT22;516;51.482;7.120;2023-04-23T17:55:36;12.00;99.90
1055;DHT22;516;51.482;7.120;2023-04-23T18:01:24;11.90;99.90
1055;DHT22;516;51.482;7.120;2023-04-23T18:07:11;12.00;99.90
1055;DHT22;516;51.482;7.120;2023-04-23T18:13:02;11.90;99.90
1055;DHT22;516;51.482;7.120;2023-04-23T18:18:51;11.90;99.90
1055;DHT22;516;51.482;7.120;2023-04-23T18:24:39;11.90;99.90
1055;DHT22;516;51.482;7.120;2023-04-23T18:30:27;11.90;99.90
1055;DHT22;516;51.482;7.120;2023-04-23T18:36:19;11.80;99.90
1055;DHT22;516;51.482;7.120;2023-04-23T18:39:28;11.80;99.90
1055;DHT22;516;51.482;7.120;2023-04-23T18:41:54;11.90;99.90
1055;DHT22;516;51.482;7.120;2023-04-23T18:54:27;11.90;99.90
1055;DHT22;516;51.482;7.120;2023-04-23T19:00:14;12.00;99.90
1055;DHT22;516;51.482;7.120;2023-04-23T19:06:02;12.10;99.90
1055;DHT22;516;51.482;7.120;2023-04-23T19:11:53;12.00;99.90
1055;DHT22;516;51.482;7.120;2023-04-23T19:17:41;12.00;99.90
1055;DHT22;516;51.482;7.120;2023-04-23T19:23:28;12.20;99.90
1055;DHT22;516;51.482;7.120;2023-04-23T19:29:15;12.30;99.90
1055;DHT22;516;51.482;7.120;2023-04-23T19:35:03;12.40;99.90
1055;DHT22;516;51.482;7.120;2023-04-23T19:44:14;12.40;99.90
1055;DHT22;516;51.482;7.120;2023-04-23T19:50:01;12.30;99.90
1055;DHT22;516;51.482;7.120;2023-04-23T19:55:49;12.20;99.90
1055;DHT22;516;51.482;7.120;2023-04-23T20:01:37;12.10;99.90
1055;DHT22;516;51.482;7.120;2023-04-23T20:07:25;12.20;99.90
1055;DHT22;516;51.482;7.120;2023-04-23T20:13:13;12.40;99.90
1055;DHT22;516;51.482;7.120;2023-04-23T20:19:00;12.40;99.90
1055;DHT22;516;51.482;7.120;2023-04-23T20:24:51;12.40;99.90
1055;DHT22;516;51.482;7.120;2023-04-23T20:30:39;12.40;99.90
1055;DHT22;516;51.482;7.120;2023-04-23T20:36:27;12.20;99.90
1055;DHT22;516;51.482;7.120;2023-04-23T20:42:26;12.10;99.90
1055;DHT22;516;51.482;7.120;2023-04-23T20:48:15;12.10;99.90
1055;DHT22;516;51.482;7.120;2023-04-23T20:54:03;12.20;99.90
1055;DHT22;516;51.482;7.120;2023-04-23T20:59:50;12.10;99.90
1055;DHT22;516;51.482;7.120;2023-04-23T21:05:37;12.20;99.90
1055;DHT22;516;51.482;7.120;2023-04-23T21:11:26;12.20;99.90
1055;DHT22;516;51.482;7.120;2023-04-23T21:17:14;12.20;99.90
1055;DHT22;516;51.482;7.120;2023-04-23T21:23:02;12.20;99.90
1055;DHT22;516;51.482;7.120;2023-04-23T21:28:50;12.10;99.90
1055;DHT22;516;51.482;7.120;2023-04-23T21:34:38;12.10;99.90
1055;DHT22;516;51.482;7.120;2023-04-23T21:44:15;11.90;99.90
1055;DHT22;516;51.482;7.120;2023-04-23T21:50:03;11.60;99.90
1055;DHT22;516;51.482;7.120;2023-04-23T21:55:51;11.60;99.90
1055;DHT22;516;51.482;7.120;2023-04-23T22:01:39;11.50;99.90
1055;DHT22;516;51.482;7.120;2023-04-23T22:07:27;11.70;99.90
1055;DHT22;516;51.482;7.120;2023-04-23T22:13:15;11.80;99.90
1055;DHT22;516;51.482;7.120;2023-04-23T22:19:04;11.80;99.90
1055;DHT22;516;51.482;7.120;2023-04-23T22:24:52;11.70;99.90
1055;DHT22;516;51.482;7.120;2023-04-23T22:30:21;11.70;99.90
1055;DHT22;516;51.482;7.120;2023-04-23T22:36:08;11.70;99.90
1055;DHT22;516;51.482;7.120;2023-04-23T22:45:18;11.60;99.90
1055;DHT22;516;51.482;7.120;2023-04-23T22:51:05;11.70;99.90
1055;DHT22;516;51.482;7.120;2023-04-23T22:56:53;11.70;99.90
1055;DHT22;516;51.482;7.120;2023-04-23T23:02:41;11.70;99.90
1055;DHT22;516;51.482;7.120;2023-04-23T23:08:28;11.70;99.90
1055;DHT22;516;51.482;7.120;2023-04-23T23:14:17;11.60;99.90
1055;DHT22;516;51.482;7.120;2023-04-23T23:20:05;11.70;99.90
1055;DHT22;516;51.482;7.120;2023-04-23T23:25:55;11.60;99.90
1055;DHT22;516;51.482;7.120;2023-04-23T23:31:43;11.60;99.90
1055;DHT22;516;51.482;7.120;2023-04-23T23:37:31;11.40;99.90
1055;DHT22;516;51.482;7.120;2023-04-23T23:43:09;11.40;99.90
1055;DHT22;516;51.482;7.120;2023-04-23T23:48:57;11.60;99.90
1055;DHT22;516;51.482;7.120;2023-04-23T23:54:45;11.60;99.90
